sensor_id;sensor_type;location;lat;lon;timestamp;P1;durP1;ratioP1;P2;durP2;ratioP2
32788;SDS011;19141;48.980;8.410;2023-03-03T05:22:33;8.68;;;6.93;;
32788;SDS011;19141;48.980;8.410;2023-03-03T05:24:58;8.63;;;6.32;;
32788;SDS011;19141;48.980;8.410;2023-03-03T05:27:24;17.90;;;6.65;;
32788;SDS011;19141;48.980;8.410;2023-03-03T05:29:49;15.10;;;7.55;;
32788;SDS011;19141;48.980;8.410;2023-03-03T05:32:15;12.20;;;7.70;;
32788;SDS011;19141;48.980;8.410;2023-03-03T05:34:40;11.73;;;6.57;;
32788;SDS011;19141;48.980;8.410;2023-03-03T05:37:06;16.73;;;7.97;;
32788;SDS011;19141;48.980;8.410;2023-03-03T05:39:32;14.32;;;8.90;;
32788;SDS011;19141;48.980;8.410;2023-03-03T05:41:58;12.25;;;7.20;;
32788;SDS011;19141;48.980;8.410;2023-03-03T05:44:24;9.30;;;6.88;;
32788;SDS011;19141;48.980;8.410;2023-03-03T05:46:50;10.38;;;7.32;;
32788;SDS011;19141;48.980;8.410;2023-03-03T05:49:16;12.80;;;8.23;;
32788;SDS011;19141;48.980;8.410;2023-03-03T05:51:41;20.73;;;9.10;;
32788;SDS011;19141;48.980;8.410;2023-03-03T05:54:07;14.88;;;7.72;;
32788;SDS011;19141;48.980;8.410;2023-03-03T05:56:32;19.65;;;8.35;;
32788;SDS011;19141;48.980;8.410;2023-03-03T05:58:57;9.52;;;6.47;;
32788;SDS011;19141;48.980;8.410;2023-03-03T06:01:23;16.10;;;7.90;;
32788;SDS011;19141;48.980;8.410;2023-03-03T06:03:48;11.48;;;6.68;;
32788;SDS011;19141;48.980;8.410;2023-03-03T06:06:14;16.90;;;8.18;;
32788;SDS011;19141;48.980;8.410;2023-03-03T06:08:41;15.32;;;8.38;;
32788;SDS011;19141;48.980;8.410;2023-03-03T06:11:06;16.00;;;8.15;;
32788;SDS011;19141;48.980;8.410;2023-03-03T06:13:32;15.40;;;6.70;;
32788;SDS011;19141;48.980;8.410;2023-03-03T06:15:57;14.75;;;7.93;;
32788;SDS011;19141;48.980;8.410;2023-03-03T06:18:23;16.80;;;7.93;;
32788;SDS011;19141;48.980;8.410;2023-03-03T06:20:52;18.27;;;8.73;;
32788;SDS011;19141;48.980;8.410;2023-03-03T06:23:18;12.68;;;8.68;;
32788;SDS011;19141;48.980;8.410;2023-03-03T06:25:44;14.98;;;8.70;;
32788;SDS011;19141;48.980;8.410;2023-03-03T06:28:10;16.45;;;8.95;;
32788;SDS011;19141;48.980;8.410;2023-03-03T06:30:35;17.75;;;8.15;;
32788;SDS011;19141;48.980;8.410;2023-03-03T06:33:01;17.15;;;7.75;;
32788;SDS011;19141;48.980;8.410;2023-03-03T06:35:26;16.20;;;9.02;;
32788;SDS011;19141;48.980;8.410;2023-03-03T06:37:51;14.40;;;8.07;;
32788;SDS011;19141;48.980;8.410;2023-03-03T06:40:17;12.93;;;7.47;;
32788;SDS011;19141;48.980;8.410;2023-03-03T06:42:42;17.75;;;8.07;;
32788;SDS011;19141;48.980;8.410;2023-03-03T06:45:08;14.00;;;6.68;;
32788;SDS011;19141;48.980;8.410;2023-03-03T06:47:33;13.77;;;8.20;;
32788;SDS011;19141;48.980;8.410;2023-03-03T06:49:59;14.35;;;8.32;;
32788;SDS011;19141;48.980;8.410;2023-03-03T06:52:25;15.32;;;8.10;;
32788;SDS011;19141;48.980;8.410;2023-03-03T06:54:52;14.85;;;7.97;;
32788;SDS011;19141;48.980;8.410;2023-03-03T06:57:27;18.50;;;8.23;;
32788;SDS011;19141;48.980;8.410;2023-03-03T06:59:56;15.85;;;7.20;;
32788;SDS011;19141;48.980;8.410;2023-03-03T07:02:24;18.55;;;8.70;;
32788;SDS011;19141;48.980;8.410;2023-03-03T07:04:49;18.50;;;9.13;;
32788;SDS011;19141;48.980;8.410;2023-03-03T07:09:43;14.03;;;7.83;;
32788;SDS011;19141;48.980;8.410;2023-03-03T07:12:12;16.67;;;8.20;;
32788;SDS011;19141;48.980;8.410;2023-03-03T07:14:43;15.45;;;7.50;;
32788;SDS011;19141;48.980;8.410;2023-03-03T07:17:19;17.45;;;7.88;;
32788;SDS011;19141;48.980;8.410;2023-03-03T07:19:44;14.73;;;7.63;;
32788;SDS011;19141;48.980;8.410;2023-03-03T07:24:42;12.48;;;7.80;;
32788;SDS011;19141;48.980;8.410;2023-03-03T07:27:29;13.85;;;7.32;;
32788;SDS011;19141;48.980;8.410;2023-03-03T07:30:18;12.60;;;7.60;;
32788;SDS011;19141;48.980;8.410;2023-03-03T07:32:52;15.77;;;8.88;;
32788;SDS011;19141;48.980;8.410;2023-03-03T07:35:37;17.23;;;8.82;;
32788;SDS011;19141;48.980;8.410;2023-03-03T07:38:20;13.50;;;8.57;;
32788;SDS011;19141;48.980;8.410;2023-03-03T07:40:50;18.33;;;9.02;;
32788;SDS011;19141;48.980;8.410;2023-03-03T07:46:02;14.48;;;7.60;;
32788;SDS011;19141;48.980;8.410;2023-03-03T07:48:35;15.88;;;7.90;;
32788;SDS011;19141;48.980;8.410;2023-03-03T07:51:10;16.08;;;8.57;;
32788;SDS011;19141;48.980;8.410;2023-03-03T07:53:49;15.25;;;9.70;;
32788;SDS011;19141;48.980;8.410;2023-03-03T07:58:41;14.35;;;8.15;;
32788;SDS011;19141;48.980;8.410;2023-03-03T08:01:28;18.83;;;8.95;;
32788;SDS011;19141;48.980;8.410;2023-03-03T08:04:00;14.98;;;8.63;;
32788;SDS011;19141;48.980;8.410;2023-03-03T08:12:11;16.13;;;8.45;;
32788;SDS011;19141;48.980;8.410;2023-03-03T08:14:34;18.77;;;8.95;;
32788;SDS011;19141;48.980;8.410;2023-03-03T08:17:01;25.48;;;10.23;;
32788;SDS011;19141;48.980;8.410;2023-03-03T08:19:31;20.65;;;9.73;;
32788;SDS011;19141;48.980;8.410;2023-03-03T08:21:59;15.35;;;8.35;;
32788;SDS011;19141;48.980;8.410;2023-03-03T08:24:44;19.63;;;9.40;;
32788;SDS011;19141;48.980;8.410;2023-03-03T08:27:10;26.35;;;10.00;;
32788;SDS011;19141;48.980;8.410;2023-03-03T08:29:35;20.45;;;10.35;;
32788;SDS011;19141;48.980;8.410;2023-03-03T08:32:01;20.88;;;10.48;;
32788;SDS011;19141;48.980;8.410;2023-03-03T08:34:26;21.00;;;10.48;;
32788;SDS011;19141;48.980;8.410;2023-03-03T08:36:52;23.17;;;10.20;;
32788;SDS011;19141;48.980;8.410;2023-03-03T08:39:17;23.48;;;11.07;;
32788;SDS011;19141;48.980;8.410;2023-03-03T08:41:42;22.55;;;11.50;;
32788;SDS011;19141;48.980;8.410;2023-03-03T08:44:09;19.25;;;10.80;;
32788;SDS011;19141;48.980;8.410;2023-03-03T08:46:35;21.52;;;11.02;;
32788;SDS011;19141;48.980;8.410;2023-03-03T08:49:00;26.33;;;9.73;;
32788;SDS011;19141;48.980;8.410;2023-03-03T08:51:26;17.88;;;9.85;;
32788;SDS011;19141;48.980;8.410;2023-03-03T08:53:52;25.05;;;10.98;;
32788;SDS011;19141;48.980;8.410;2023-03-03T08:56:17;25.17;;;10.43;;
32788;SDS011;19141;48.980;8.410;2023-03-03T08:58:43;20.98;;;10.48;;
32788;SDS011;19141;48.980;8.410;2023-03-03T09:01:12;20.23;;;10.45;;
32788;SDS011;19141;48.980;8.410;2023-03-03T09:03:40;20.13;;;10.20;;
32788;SDS011;19141;48.980;8.410;2023-03-03T09:06:06;21.65;;;10.43;;
32788;SDS011;19141;48.980;8.410;2023-03-03T09:08:31;21.02;;;11.70;;
32788;SDS011;19141;48.980;8.410;2023-03-03T09:10:57;24.00;;;11.40;;
32788;SDS011;19141;48.980;8.410;2023-03-03T09:13:22;21.55;;;11.00;;
32788;SDS011;19141;48.980;8.410;2023-03-03T09:15:48;19.05;;;9.70;;
32788;SDS011;19141;48.980;8.410;2023-03-03T09:18:47;21.45;;;10.63;;
32788;SDS011;19141;48.980;8.410;2023-03-03T09:21:20;19.40;;;10.25;;
32788;SDS011;19141;48.980;8.410;2023-03-03T09:23:54;26.23;;;10.90;;
32788;SDS011;19141;48.980;8.410;2023-03-03T09:26:39;21.38;;;10.95;;
32788;SDS011;19141;48.980;8.410;2023-03-03T09:31:39;21.25;;;11.40;;
32788;SDS011;19141;48.980;8.410;2023-03-03T09:34:12;24.77;;;12.93;;
32788;SDS011;19141;48.980;8.410;2023-03-03T09:36:48;23.83;;;12.65;;
32788;SDS011;19141;48.980;8.410;2023-03-03T09:39:22;21.48;;;11.43;;
32788;SDS011;19141;48.980;8.410;2023-03-03T09:49:45;20.88;;;10.63;;
32788;SDS011;19141;48.980;8.410;2023-03-03T09:55:06;20.90;;;10.65;;
32788;SDS011;19141;48.980;8.410;2023-03-03T10:03:57;18.27;;;10.20;;
32788;SDS011;19141;48.980;8.410;2023-03-03T10:09:07;19.58;;;10.07;;
32788;SDS011;19141;48.980;8.410;2023-03-03T10:11:46;21.13;;;10.80;;
32788;SDS011;19141;48.980;8.410;2023-03-03T10:25:19;25.52;;;11.10;;
32788;SDS011;19141;48.980;8.410;2023-03-03T10:28:04;21.98;;;10.60;;
32788;SDS011;19141;48.980;8.410;2023-03-03T10:33:27;21.25;;;11.07;;
32788;SDS011;19141;48.980;8.410;2023-03-03T10:36:16;21.38;;;12.32;;
32788;SDS011;19141;48.980;8.410;2023-03-03T10:50:02;21.83;;;12.13;;
32788;SDS011;19141;48.980;8.410;2023-03-03T10:53:20;23.75;;;11.32;;
32788;SDS011;19141;48.980;8.410;2023-03-03T10:58:56;22.90;;;12.25;;
32788;SDS011;19141;48.980;8.410;2023-03-03T11:04:44;17.65;;;10.23;;
32788;SDS011;19141;48.980;8.410;2023-03-03T11:07:19;18.58;;;10.18;;
32788;SDS011;19141;48.980;8.410;2023-03-03T11:10:03;21.10;;;10.95;;
32788;SDS011;19141;48.980;8.410;2023-03-03T11:12:41;20.10;;;10.38;;
32788;SDS011;19141;48.980;8.410;2023-03-03T11:20:57;23.60;;;11.63;;
32788;SDS011;19141;48.980;8.410;2023-03-03T11:23:48;22.10;;;11.15;;
32788;SDS011;19141;48.980;8.410;2023-03-03T11:31:52;19.38;;;9.60;;
32788;SDS011;19141;48.980;8.410;2023-03-03T11:39:49;17.30;;;9.57;;
32788;SDS011;19141;48.980;8.410;2023-03-03T11:44:55;18.25;;;10.00;;
32788;SDS011;19141;48.980;8.410;2023-03-03T11:50:02;20.67;;;10.50;;
32788;SDS011;19141;48.980;8.410;2023-03-03T11:52:50;17.50;;;9.82;;
32788;SDS011;19141;48.980;8.410;2023-03-03T11:55:20;21.75;;;10.18;;
32788;SDS011;19141;48.980;8.410;2023-03-03T11:58:01;20.98;;;9.82;;
32788;SDS011;19141;48.980;8.410;2023-03-03T12:08:35;19.77;;;10.13;;
32788;SDS011;19141;48.980;8.410;2023-03-03T12:13:49;19.95;;;10.50;;
32788;SDS011;19141;48.980;8.410;2023-03-03T12:19:27;25.77;;;11.30;;
32788;SDS011;19141;48.980;8.410;2023-03-03T12:24:45;24.13;;;11.55;;
32788;SDS011;19141;48.980;8.410;2023-03-03T12:33:31;18.75;;;10.48;;
32788;SDS011;19141;48.980;8.410;2023-03-03T12:36:13;19.90;;;11.32;;
32788;SDS011;19141;48.980;8.410;2023-03-03T13:17:46;24.38;;;13.07;;
32788;SDS011;19141;48.980;8.410;2023-03-03T13:20:40;21.15;;;11.80;;
32788;SDS011;19141;48.980;8.410;2023-03-03T13:26:14;22.83;;;11.98;;
32788;SDS011;19141;48.980;8.410;2023-03-03T13:29:18;22.13;;;12.38;;
32788;SDS011;19141;48.980;8.410;2023-03-03T13:31:53;21.58;;;11.75;;
32788;SDS011;19141;48.980;8.410;2023-03-03T13:34:42;25.08;;;12.10;;
32788;SDS011;19141;48.980;8.410;2023-03-03T13:37:31;22.25;;;11.82;;
32788;SDS011;19141;48.980;8.410;2023-03-03T13:40:09;23.10;;;12.68;;
32788;SDS011;19141;48.980;8.410;2023-03-03T13:42:46;23.42;;;11.57;;
32788;SDS011;19141;48.980;8.410;2023-03-03T13:53:10;28.20;;;12.97;;
32788;SDS011;19141;48.980;8.410;2023-03-03T13:55:54;23.38;;;12.32;;
32788;SDS011;19141;48.980;8.410;2023-03-03T13:58:44;24.33;;;12.57;;
32788;SDS011;19141;48.980;8.410;2023-03-03T14:01:31;28.67;;;12.95;;
32788;SDS011;19141;48.980;8.410;2023-03-03T14:06:57;29.00;;;13.20;;
32788;SDS011;19141;48.980;8.410;2023-03-03T14:09:50;26.30;;;12.95;;
32788;SDS011;19141;48.980;8.410;2023-03-03T14:12:28;24.85;;;12.00;;
32788;SDS011;19141;48.980;8.410;2023-03-03T14:15:11;28.38;;;14.05;;
32788;SDS011;19141;48.980;8.410;2023-03-03T14:23:01;26.65;;;12.55;;
32788;SDS011;19141;48.980;8.410;2023-03-03T14:28:16;26.58;;;12.77;;
32788;SDS011;19141;48.980;8.410;2023-03-03T14:30:46;23.63;;;12.00;;
32788;SDS011;19141;48.980;8.410;2023-03-03T14:35:38;23.77;;;11.88;;
32788;SDS011;19141;48.980;8.410;2023-03-03T14:40:43;28.80;;;13.77;;
32788;SDS011;19141;48.980;8.410;2023-03-03T14:45:56;32.38;;;12.80;;
32788;SDS011;19141;48.980;8.410;2023-03-03T14:48:54;28.20;;;12.55;;
32788;SDS011;19141;48.980;8.410;2023-03-03T14:53:53;23.92;;;11.88;;
32788;SDS011;19141;48.980;8.410;2023-03-03T14:58:51;27.05;;;11.93;;
32788;SDS011;19141;48.980;8.410;2023-03-03T15:04:03;25.55;;;11.63;;
32788;SDS011;19141;48.980;8.410;2023-03-03T15:11:51;27.88;;;11.98;;
32788;SDS011;19141;48.980;8.410;2023-03-03T15:14:18;33.55;;;13.00;;
32788;SDS011;19141;48.980;8.410;2023-03-03T15:16:50;32.17;;;13.38;;
32788;SDS011;19141;48.980;8.410;2023-03-03T15:24:46;24.95;;;11.43;;
32788;SDS011;19141;48.980;8.410;2023-03-03T15:27:24;28.30;;;13.80;;
32788;SDS011;19141;48.980;8.410;2023-03-03T15:32:59;24.77;;;11.30;;
32788;SDS011;19141;48.980;8.410;2023-03-03T15:38:24;24.13;;;11.80;;
32788;SDS011;19141;48.980;8.410;2023-03-03T15:41:10;24.08;;;11.65;;
32788;SDS011;19141;48.980;8.410;2023-03-03T15:44:18;25.42;;;12.40;;
32788;SDS011;19141;48.980;8.410;2023-03-03T16:03:33;22.90;;;11.65;;
32788;SDS011;19141;48.980;8.410;2023-03-03T16:06:10;27.45;;;12.02;;
32788;SDS011;19141;48.980;8.410;2023-03-03T16:08:59;27.27;;;11.60;;
32788;SDS011;19141;48.980;8.410;2023-03-03T16:14:37;35.67;;;12.32;;
32788;SDS011;19141;48.980;8.410;2023-03-03T16:20:08;22.90;;;11.40;;
32788;SDS011;19141;48.980;8.410;2023-03-03T16:28:29;24.60;;;11.75;;
32788;SDS011;19141;48.980;8.410;2023-03-03T16:31:39;22.13;;;10.95;;
32788;SDS011;19141;48.980;8.410;2023-03-03T16:42:22;34.97;;;12.73;;
32788;SDS011;19141;48.980;8.410;2023-03-03T16:45:00;24.00;;;10.80;;
32788;SDS011;19141;48.980;8.410;2023-03-03T16:53:00;26.00;;;12.40;;
32788;SDS011;19141;48.980;8.410;2023-03-03T16:55:51;29.85;;;13.75;;
32788;SDS011;19141;48.980;8.410;2023-03-03T16:58:41;20.77;;;10.93;;
32788;SDS011;19141;48.980;8.410;2023-03-03T17:01:26;24.30;;;12.00;;
32788;SDS011;19141;48.980;8.410;2023-03-03T17:10:14;22.95;;;11.90;;
32788;SDS011;19141;48.980;8.410;2023-03-03T17:15:36;27.33;;;12.30;;
32788;SDS011;19141;48.980;8.410;2023-03-03T17:18:39;22.35;;;11.48;;
32788;SDS011;19141;48.980;8.410;2023-03-03T17:23:59;32.67;;;12.32;;
32788;SDS011;19141;48.980;8.410;2023-03-03T17:29:45;25.40;;;11.68;;
32788;SDS011;19141;48.980;8.410;2023-03-03T17:38:05;26.63;;;10.68;;
32788;SDS011;19141;48.980;8.410;2023-03-03T17:43:40;24.38;;;10.48;;
32788;SDS011;19141;48.980;8.410;2023-03-03T17:52:34;22.85;;;9.82;;
32788;SDS011;19141;48.980;8.410;2023-03-03T18:05:58;23.55;;;10.57;;
32788;SDS011;19141;48.980;8.410;2023-03-03T18:16:52;21.77;;;8.85;;
32788;SDS011;19141;48.980;8.410;2023-03-03T18:26:51;16.80;;;8.23;;
32788;SDS011;19141;48.980;8.410;2023-03-03T18:29:19;17.80;;;8.30;;
32788;SDS011;19141;48.980;8.410;2023-03-03T18:36:54;18.33;;;8.48;;
32788;SDS011;19141;48.980;8.410;2023-03-03T18:39:34;28.73;;;10.55;;
32788;SDS011;19141;48.980;8.410;2023-03-03T18:42:43;20.95;;;9.88;;
32788;SDS011;19141;48.980;8.410;2023-03-03T18:44:54;18.35;;;9.80;;
32788;SDS011;19141;48.980;8.410;2023-03-03T18:47:24;21.05;;;9.82;;
32788;SDS011;19141;48.980;8.410;2023-03-03T18:55:44;24.60;;;10.18;;
32788;SDS011;19141;48.980;8.410;2023-03-03T19:00:45;20.30;;;9.60;;
32788;SDS011;19141;48.980;8.410;2023-03-03T19:05:59;22.98;;;9.95;;
32788;SDS011;19141;48.980;8.410;2023-03-03T19:08:50;19.35;;;9.20;;
32788;SDS011;19141;48.980;8.410;2023-03-03T19:11:39;15.50;;;8.32;;
32788;SDS011;19141;48.980;8.410;2023-03-03T19:14:16;16.98;;;7.80;;
32788;SDS011;19141;48.980;8.410;2023-03-03T19:16:50;20.35;;;8.95;;
32788;SDS011;19141;48.980;8.410;2023-03-03T19:19:17;28.87;;;8.73;;
32788;SDS011;19141;48.980;8.410;2023-03-03T19:21:47;20.67;;;10.02;;
32788;SDS011;19141;48.980;8.410;2023-03-03T19:33:06;20.88;;;8.82;;
32788;SDS011;19141;48.980;8.410;2023-03-03T19:36:10;21.13;;;8.05;;
32788;SDS011;19141;48.980;8.410;2023-03-03T19:41:03;19.20;;;8.07;;
32788;SDS011;19141;48.980;8.410;2023-03-03T19:43:52;15.98;;;7.57;;
32788;SDS011;19141;48.980;8.410;2023-03-03T19:54:46;20.02;;;8.93;;
32788;SDS011;19141;48.980;8.410;2023-03-03T20:00:26;24.27;;;9.48;;
32788;SDS011;19141;48.980;8.410;2023-03-03T20:14:34;18.10;;;8.18;;
32788;SDS011;19141;48.980;8.410;2023-03-03T20:22:53;24.67;;;10.43;;
32788;SDS011;19141;48.980;8.410;2023-03-03T20:28:25;22.83;;;9.65;;
32788;SDS011;19141;48.980;8.410;2023-03-03T20:42:39;25.90;;;10.13;;
32788;SDS011;19141;48.980;8.410;2023-03-03T20:50:34;20.35;;;9.20;;
32788;SDS011;19141;48.980;8.410;2023-03-03T20:53:18;23.52;;;9.18;;
32788;SDS011;19141;48.980;8.410;2023-03-03T21:06:44;17.40;;;8.57;;
32788;SDS011;19141;48.980;8.410;2023-03-03T21:11:55;23.58;;;9.95;;
32788;SDS011;19141;48.980;8.410;2023-03-03T21:16:48;19.25;;;9.93;;
32788;SDS011;19141;48.980;8.410;2023-03-03T21:19:33;19.77;;;9.57;;
32788;SDS011;19141;48.980;8.410;2023-03-03T21:22:00;20.23;;;10.00;;
32788;SDS011;19141;48.980;8.410;2023-03-03T21:24:49;24.77;;;9.82;;
32788;SDS011;19141;48.980;8.410;2023-03-03T21:27:24;17.42;;;7.32;;
32788;SDS011;19141;48.980;8.410;2023-03-03T21:30:30;21.50;;;8.95;;
32788;SDS011;19141;48.980;8.410;2023-03-03T21:32:49;16.45;;;7.57;;
32788;SDS011;19141;48.980;8.410;2023-03-03T21:35:19;17.73;;;7.70;;
32788;SDS011;19141;48.980;8.410;2023-03-03T21:42:50;19.02;;;8.07;;
32788;SDS011;19141;48.980;8.410;2023-03-03T21:45:17;20.02;;;8.15;;
32788;SDS011;19141;48.980;8.410;2023-03-03T21:47:44;14.05;;;7.55;;
32788;SDS011;19141;48.980;8.410;2023-03-03T21:50:11;15.50;;;6.85;;
32788;SDS011;19141;48.980;8.410;2023-03-03T21:52:37;17.23;;;8.82;;
32788;SDS011;19141;48.980;8.410;2023-03-03T21:55:03;22.00;;;8.07;;
32788;SDS011;19141;48.980;8.410;2023-03-03T21:57:29;17.70;;;8.52;;
32788;SDS011;19141;48.980;8.410;2023-03-03T21:59:54;19.23;;;8.23;;
32788;SDS011;19141;48.980;8.410;2023-03-03T22:02:20;16.90;;;7.57;;
32788;SDS011;19141;48.980;8.410;2023-03-03T22:04:45;19.42;;;8.45;;
32788;SDS011;19141;48.980;8.410;2023-03-03T22:07:11;17.58;;;7.55;;
32788;SDS011;19141;48.980;8.410;2023-03-03T22:09:36;21.73;;;9.32;;
32788;SDS011;19141;48.980;8.410;2023-03-03T22:12:02;14.65;;;6.95;;
32788;SDS011;19141;48.980;8.410;2023-03-03T22:14:28;17.13;;;8.05;;
32788;SDS011;19141;48.980;8.410;2023-03-03T22:16:54;13.55;;;7.18;;
32788;SDS011;19141;48.980;8.410;2023-03-03T22:19:20;15.57;;;7.35;;
32788;SDS011;19141;48.980;8.410;2023-03-03T22:21:45;14.27;;;6.65;;
32788;SDS011;19141;48.980;8.410;2023-03-03T22:24:11;18.73;;;7.65;;
32788;SDS011;19141;48.980;8.410;2023-03-03T22:26:36;22.85;;;9.30;;
32788;SDS011;19141;48.980;8.410;2023-03-03T22:29:02;18.10;;;8.48;;
32788;SDS011;19141;48.980;8.410;2023-03-03T22:31:28;14.95;;;7.20;;
32788;SDS011;19141;48.980;8.410;2023-03-03T22:33:54;15.60;;;7.15;;
32788;SDS011;19141;48.980;8.410;2023-03-03T22:36:19;15.55;;;7.97;;
32788;SDS011;19141;48.980;8.410;2023-03-03T22:38:45;20.80;;;7.60;;
32788;SDS011;19141;48.980;8.410;2023-03-03T22:41:11;16.65;;;7.75;;
32788;SDS011;19141;48.980;8.410;2023-03-03T22:43:36;15.18;;;7.13;;
32788;SDS011;19141;48.980;8.410;2023-03-03T22:46:02;14.30;;;7.30;;
32788;SDS011;19141;48.980;8.410;2023-03-03T22:48:28;17.92;;;7.13;;
32788;SDS011;19141;48.980;8.410;2023-03-03T22:50:54;14.02;;;7.22;;
32788;SDS011;19141;48.980;8.410;2023-03-03T22:53:20;14.00;;;7.95;;
32788;SDS011;19141;48.980;8.410;2023-03-03T22:55:46;15.13;;;7.38;;
32788;SDS011;19141;48.980;8.410;2023-03-03T22:58:11;14.65;;;7.25;;
